createdAt,value
2022-10-06T00:00:44.524Z,15.839999
2022-10-06T00:01:44.660Z,15.839999
2022-10-06T00:02:44.819Z,16.08
2022-10-06T00:03:44.884Z,15.839999
2022-10-06T00:04:45.036Z,15.52
2022-10-06T00:05:45.186Z,15.599999
2022-10-06T00:06:45.293Z,15.92
2022-10-06T00:07:45.443Z,15.679999
2022-10-06T00:08:45.541Z,15.599999
2022-10-06T00:09:45.693Z,15.52
2022-10-06T00:10:45.849Z,15.28
2022-10-06T00:11:45.999Z,15.04
2022-10-06T00:12:46.097Z,15.52
2022-10-06T00:13:46.214Z,15.839999
2022-10-06T00:14:46.314Z,16
2022-10-06T00:15:46.479Z,15.839999
2022-10-06T00:16:46.606Z,15.92
2022-10-06T00:17:46.762Z,15.92
2022-10-06T00:18:46.857Z,15.839999
2022-10-06T00:19:47.010Z,15.28
2022-10-06T00:20:47.111Z,15.599999
2022-10-06T00:21:47.209Z,15.04
2022-10-06T00:22:47.326Z,15.04
2022-10-06T00:23:47.467Z,15.52
2022-10-06T00:24:47.570Z,15.44
2022-10-06T00:25:47.674Z,15.28
2022-10-06T00:26:47.774Z,15.52
2022-10-06T00:27:47.923Z,15.679999
2022-10-06T00:28:48.149Z,15.679999
2022-10-06T00:29:48.193Z,15.599999
2022-10-06T00:30:48.362Z,15.2
2022-10-06T00:31:48.483Z,15.44
2022-10-06T00:32:48.579Z,15.44
2022-10-06T00:33:48.730Z,15.44
2022-10-06T00:34:48.832Z,15.52
2022-10-06T00:35:48.941Z,15.44
2022-10-06T00:36:49.036Z,15.44
2022-10-06T00:37:49.139Z,15.679999
2022-10-06T00:38:49.245Z,15.44
2022-10-06T00:39:49.392Z,15.679999
2022-10-06T00:40:49.494Z,15.92
2022-10-06T00:41:49.596Z,15.679999
2022-10-06T00:42:49.753Z,15.28
2022-10-06T00:43:49.897Z,15.28
2022-10-06T00:44:50.062Z,15.599999
2022-10-06T00:45:50.281Z,15.28
2022-10-06T00:46:50.307Z,15.2
2022-10-06T00:47:50.413Z,15.44
2022-10-06T00:48:50.517Z,15.44
2022-10-06T00:49:50.618Z,15.2
2022-10-06T00:50:50.798Z,15.52
2022-10-06T00:51:50.864Z,15.28
2022-10-06T00:52:50.984Z,15.12
2022-10-06T00:53:51.198Z,15.04
2022-10-06T00:54:51.320Z,15.44
2022-10-06T00:55:51.422Z,15.28
2022-10-06T00:56:51.574Z,15.28
2022-10-06T00:57:51.723Z,15.12
2022-10-06T00:58:51.876Z,15.12
2022-10-06T00:59:51.990Z,15.04
2022-10-06T01:00:52.127Z,14.719999
2022-10-06T01:01:52.289Z,14.88
2022-10-06T01:02:52.382Z,14.799999
2022-10-06T01:03:52.435Z,15.04
2022-10-06T01:04:52.582Z,15.04
2022-10-06T01:05:52.688Z,15.04
2022-10-06T01:06:52.793Z,15.2
2022-10-06T01:07:52.943Z,15.2
2022-10-06T01:08:53.041Z,15.04
2022-10-06T01:09:53.149Z,15.28
2022-10-06T01:10:53.245Z,15.2
2022-10-06T01:11:53.351Z,15.28
2022-10-06T01:12:53.447Z,15.28
2022-10-06T01:13:53.563Z,15.2
2022-10-06T01:14:53.675Z,15.12
2022-10-06T01:15:53.833Z,15.12
2022-10-06T01:16:53.911Z,15.599999
2022-10-06T01:17:54.016Z,15.52
2022-10-06T01:18:54.179Z,15.12
2022-10-06T01:19:54.308Z,15.44
2022-10-06T01:20:54.414Z,15.28
2022-10-06T01:21:54.513Z,15.28
2022-10-06T01:22:54.617Z,15.12
2022-10-06T01:23:54.722Z,15.04
2022-10-06T01:24:54.871Z,15.04
2022-10-06T01:25:54.971Z,15.44
2022-10-06T01:26:55.072Z,15.44
2022-10-06T01:27:55.266Z,15.44
2022-10-06T01:28:55.379Z,15.599999
2022-10-06T01:29:55.492Z,15.44
2022-10-06T01:30:55.690Z,15.28
2022-10-06T01:31:55.733Z,15.2
2022-10-06T01:32:55.833Z,15.12
2022-10-06T01:33:55.958Z,15.2
2022-10-06T01:34:56.038Z,15.44
2022-10-06T01:35:56.145Z,15.28
2022-10-06T01:36:56.238Z,15.04
2022-10-06T01:37:56.344Z,15.04
2022-10-06T01:38:56.444Z,15.12
2022-10-06T01:39:56.594Z,15.12
2022-10-06T01:40:56.707Z,15.44
2022-10-06T01:41:56.800Z,15.2
2022-10-06T01:42:56.905Z,14.799999
2022-10-06T01:43:57.005Z,15.04
2022-10-06T01:44:57.118Z,14.639999
2022-10-06T01:45:57.346Z,14.639999
2022-10-06T01:46:57.407Z,14.719999
2022-10-06T01:47:57.510Z,14.639999
2022-10-06T01:48:57.611Z,14.799999
2022-10-06T01:49:57.775Z,14.799999
2022-10-06T01:50:57.864Z,14.799999
2022-10-06T01:51:58.018Z,15.2
2022-10-06T01:52:58.181Z,14.88
2022-10-06T01:53:58.716Z,14.639999
2022-10-06T01:54:58.423Z,14.719999
2022-10-06T01:55:58.582Z,14.799999
2022-10-06T01:56:58.676Z,14.799999
2022-10-06T01:57:58.826Z,14.799999
2022-10-06T01:58:58.929Z,14.639999
2022-10-06T01:59:59.043Z,14.799999
2022-10-06T02:00:59.179Z,14.799999
2022-10-06T02:01:59.362Z,14.88
2022-10-06T02:02:59.482Z,15.12
2022-10-06T02:03:59.638Z,15.12
2022-10-06T02:04:59.691Z,14.799999
2022-10-06T02:05:59.813Z,14.639999
2022-10-06T02:06:59.892Z,14.719999
2022-10-06T02:07:59.992Z,14.799999
2022-10-06T02:09:00.145Z,14.88
2022-10-06T02:10:00.302Z,14.48
2022-10-06T02:11:00.449Z,14.719999
2022-10-06T02:12:00.562Z,14.639999
2022-10-06T02:13:00.785Z,14.639999
2022-10-06T02:14:00.905Z,14.719999
2022-10-06T02:15:01.025Z,14.719999
2022-10-06T02:16:01.223Z,14.799999
2022-10-06T02:17:01.256Z,14.48
2022-10-06T02:18:01.366Z,14.88
2022-10-06T02:19:01.460Z,15.04
2022-10-06T02:20:01.613Z,14.639999
2022-10-06T02:21:01.718Z,14.799999
2022-10-06T02:22:01.866Z,14.719999
2022-10-06T02:23:01.966Z,14.88
2022-10-06T02:24:02.071Z,14.799999
2022-10-06T02:25:02.222Z,14.799999
2022-10-06T02:26:02.412Z,14.719999
2022-10-06T02:27:02.477Z,14.639999
2022-10-06T02:28:02.639Z,14.719999
2022-10-06T02:29:02.780Z,14.799999
2022-10-06T02:30:02.939Z,14.639999
2022-10-06T02:31:03.127Z,14.4
2022-10-06T02:32:03.182Z,14.88
2022-10-06T02:33:03.340Z,14.799999
2022-10-06T02:34:03.491Z,14.799999
2022-10-06T02:35:03.637Z,14.639999
2022-10-06T02:36:03.730Z,14.4
2022-10-06T02:37:03.842Z,14.48
2022-10-06T02:38:03.947Z,14.4
2022-10-06T02:39:04.098Z,14.32
2022-10-06T02:40:04.207Z,14.08
2022-10-06T02:41:04.354Z,14.32
2022-10-06T02:42:04.513Z,14.24
2022-10-06T02:43:04.601Z,14.48
2022-10-06T02:44:04.708Z,14.719999
2022-10-06T02:45:04.820Z,14.639999
2022-10-06T02:46:05.010Z,14.48
2022-10-06T02:47:05.066Z,14.4
2022-10-06T02:48:05.162Z,14.48
2022-10-06T02:49:05.265Z,14.639999
2022-10-06T02:50:05.423Z,14.48
2022-10-06T02:51:05.572Z,14.4
2022-10-06T02:52:05.669Z,14.32
2022-10-06T02:53:05.774Z,14.32
2022-10-06T02:54:05.873Z,14.48
2022-10-06T02:55:06.035Z,14.719999
2022-10-06T02:56:06.175Z,14.719999
2022-10-06T02:57:06.329Z,14.48
2022-10-06T02:58:06.426Z,14.4
2022-10-06T02:59:06.579Z,14.4
2022-10-06T03:00:06.703Z,14.08
2022-10-06T03:01:06.837Z,13.84
2022-10-06T03:02:07.076Z,13.92
2022-10-06T03:03:07.135Z,13.84
2022-10-06T03:04:07.242Z,14.08
2022-10-06T03:05:07.341Z,14.08
2022-10-06T03:06:07.444Z,13.92
2022-10-06T03:07:07.598Z,14.08
2022-10-06T03:08:07.696Z,14.08
2022-10-06T03:09:07.851Z,14
2022-10-06T03:10:07.951Z,14.4
2022-10-06T03:11:08.057Z,14.32
2022-10-06T03:12:08.153Z,14.24
2022-10-06T03:13:08.304Z,14
2022-10-06T03:14:08.462Z,14
2022-10-06T03:15:09.130Z,14.08
2022-10-06T03:16:08.779Z,14.08
2022-10-06T03:17:08.914Z,14.24
2022-10-06T03:18:09.588Z,14.08
2022-10-06T03:19:09.166Z,14.08
2022-10-06T03:20:09.267Z,14.799999
2022-10-06T03:21:09.416Z,14.639999
2022-10-06T03:22:09.525Z,14.639999
2022-10-06T03:23:13.396Z,14.48
2022-10-06T03:24:09.722Z,14.48
2022-10-06T03:25:09.842Z,14.639999
2022-10-06T03:26:10.146Z,14.4
2022-10-06T03:27:10.229Z,14.639999
2022-10-06T03:28:10.428Z,14.4
2022-10-06T03:29:11.661Z,14.32
2022-10-06T03:30:10.594Z,14.32
2022-10-06T03:31:10.753Z,14.32
2022-10-06T03:32:10.889Z,14.32
2022-10-06T03:33:11.800Z,14.719999
2022-10-06T03:34:11.198Z,14.639999
2022-10-06T03:35:11.348Z,14.4
2022-10-06T03:36:11.446Z,14.48
2022-10-06T03:37:11.949Z,14.24
2022-10-06T03:38:11.703Z,14.32
2022-10-06T03:39:11.835Z,14.32
2022-10-06T03:40:11.950Z,14.24
2022-10-06T03:41:12.052Z,14.08
2022-10-06T03:42:12.156Z,14.24
2022-10-06T03:43:12.253Z,14.24
2022-10-06T03:44:12.419Z,14.08
2022-10-06T03:45:12.527Z,14.32
2022-10-06T03:46:12.696Z,14.48
2022-10-06T03:47:16.929Z,14.24
2022-10-06T03:48:12.866Z,14
2022-10-06T03:49:12.968Z,14.08
2022-10-06T03:50:13.067Z,14
2022-10-06T03:51:13.223Z,14
2022-10-06T03:52:13.376Z,13.92
2022-10-06T03:53:13.522Z,14
2022-10-06T03:54:13.627Z,14.08
2022-10-06T03:55:13.731Z,14.32
2022-10-06T03:56:13.831Z,14.08
2022-10-06T03:57:13.978Z,14
2022-10-06T03:58:14.132Z,14
2022-10-06T03:59:14.230Z,14.4
2022-10-06T04:00:14.339Z,14.32
2022-10-06T04:01:14.478Z,14.08
2022-10-06T04:02:14.602Z,14.32
2022-10-06T04:03:14.695Z,14
2022-10-06T04:04:14.801Z,14.08
2022-10-06T04:05:14.945Z,14.24
2022-10-06T04:06:15.048Z,14
2022-10-06T04:07:15.199Z,13.84
2022-10-06T04:08:15.299Z,13.92
2022-10-06T04:09:16.005Z,13.92
2022-10-06T04:10:15.505Z,14.08
2022-10-06T04:11:15.616Z,14.24
2022-10-06T04:12:15.707Z,14.24
2022-10-06T04:13:15.811Z,13.92
2022-10-06T04:14:15.964Z,14.48
2022-10-06T04:15:16.078Z,14.639999
2022-10-06T04:16:16.264Z,14.48
2022-10-06T04:17:16.316Z,14.639999
2022-10-06T04:18:16.481Z,14.639999
2022-10-06T04:19:16.615Z,14.48
2022-10-06T04:20:16.728Z,14.639999
2022-10-06T04:21:16.821Z,14.48
2022-10-06T04:22:16.973Z,14.799999
2022-10-06T04:23:17.076Z,14.88
2022-10-06T04:24:17.175Z,15.04
2022-10-06T04:25:17.283Z,15.04
2022-10-06T04:26:17.383Z,15.12
2022-10-06T04:27:17.487Z,15.12
2022-10-06T04:28:17.616Z,15.12
2022-10-06T04:29:17.741Z,14.88
2022-10-06T04:30:17.859Z,15.04
2022-10-06T04:31:18.027Z,15.12
2022-10-06T04:32:18.142Z,15.12
2022-10-06T04:33:18.294Z,15.04
2022-10-06T04:34:18.404Z,15.04
2022-10-06T04:35:18.496Z,15.2
2022-10-06T04:36:18.648Z,15.28
2022-10-06T04:37:18.749Z,15.2
2022-10-06T04:38:18.903Z,15.12
2022-10-06T04:39:19.001Z,15.2
2022-10-06T04:40:19.104Z,15.44
2022-10-06T04:41:19.259Z,15.2
2022-10-06T04:42:19.410Z,15.12
2022-10-06T04:43:19.508Z,15.12
2022-10-06T04:44:19.611Z,15.12
2022-10-06T04:45:19.768Z,15.12
2022-10-06T04:46:41.304Z,15.2
2022-10-06T04:47:20.015Z,15.2
2022-10-06T04:48:20.169Z,15.44
2022-10-06T04:49:20.743Z,15.28
2022-10-06T04:50:20.370Z,15.2
2022-10-06T04:51:20.473Z,15.44
2022-10-06T04:52:20.623Z,15.28
2022-10-06T04:53:20.735Z,15.44
2022-10-06T04:54:20.830Z,15.44
2022-10-06T04:55:20.934Z,15.28
2022-10-06T04:56:21.084Z,15.2
2022-10-06T04:57:21.241Z,15.2
2022-10-06T04:58:21.332Z,15.2
2022-10-06T04:59:21.442Z,15.2
2022-10-06T05:00:21.597Z,15.28
2022-10-06T05:01:21.825Z,15.28
2022-10-06T05:02:21.828Z,15.52
2022-10-06T05:03:21.939Z,15.44
2022-10-06T05:04:22.051Z,15.28
2022-10-06T05:05:22.148Z,15.44
2022-10-06T05:06:22.303Z,15.2
2022-10-06T05:07:22.406Z,15.2
2022-10-06T05:08:22.512Z,15.2
2022-10-06T05:09:22.607Z,15.2
2022-10-06T05:10:22.760Z,15.2
2022-10-06T05:11:25.771Z,15.2
2022-10-06T05:12:23.009Z,15.28
2022-10-06T05:13:23.158Z,15.44
2022-10-06T05:14:23.319Z,15.28
2022-10-06T05:15:23.415Z,15.2
2022-10-06T05:16:23.574Z,15.2
2022-10-06T05:17:23.617Z,15.2
2022-10-06T05:18:23.721Z,15.28
2022-10-06T05:19:23.836Z,15.28
2022-10-06T05:20:23.924Z,15.28
2022-10-06T05:21:24.024Z,15.2
2022-10-06T05:22:24.178Z,15.2
2022-10-06T05:23:24.326Z,15.2
2022-10-06T05:24:24.481Z,15.2
2022-10-06T05:25:24.629Z,15.28
2022-10-06T05:26:24.730Z,15.28
2022-10-06T05:27:24.835Z,15.2
2022-10-06T05:28:25.017Z,15.2
2022-10-06T05:29:25.089Z,15.28
2022-10-06T05:30:25.192Z,15.2
2022-10-06T05:31:25.307Z,15.2
2022-10-06T05:32:25.393Z,15.12
2022-10-06T05:33:25.496Z,15.2
2022-10-06T05:34:25.652Z,15.2
2022-10-06T05:35:25.769Z,15.12
2022-10-06T05:36:25.904Z,15.04
2022-10-06T05:37:26.057Z,15.12
2022-10-06T05:38:26.534Z,15.04
2022-10-06T05:39:26.255Z,15.2
2022-10-06T05:40:26.357Z,15.28
2022-10-06T05:41:26.478Z,15.2
2022-10-06T05:42:29.612Z,15.2
2022-10-06T05:43:26.713Z,15.2
2022-10-06T05:44:26.815Z,15.12
2022-10-06T05:45:26.920Z,15.04
2022-10-06T05:46:27.067Z,15.04
2022-10-06T05:47:27.222Z,15.2
2022-10-06T05:48:27.724Z,15.04
2022-10-06T05:49:27.480Z,15.2
2022-10-06T05:50:27.632Z,15.2
2022-10-06T05:51:30.526Z,15.2
2022-10-06T05:52:27.927Z,15.2
2022-10-06T05:53:28.026Z,15.28
2022-10-06T05:54:28.284Z,15.28
2022-10-06T05:55:28.391Z,15.12
2022-10-06T05:56:28.491Z,15.2
2022-10-06T05:57:28.591Z,15.2
2022-10-06T05:58:28.908Z,15.2
2022-10-06T05:59:28.839Z,15.28
2022-10-06T06:00:29.010Z,15.44
2022-10-06T06:01:29.138Z,15.44
2022-10-06T06:02:29.238Z,15.44
2022-10-06T06:03:29.298Z,15.679999
2022-10-06T06:04:29.406Z,15.52
2022-10-06T06:05:29.501Z,15.52
2022-10-06T06:06:29.653Z,15.52
2022-10-06T06:07:29.755Z,15.44
2022-10-06T06:08:30.116Z,15.28
2022-10-06T06:09:30.062Z,15.28
2022-10-06T06:10:30.160Z,15.44
2022-10-06T06:11:30.258Z,15.44
2022-10-06T06:12:30.359Z,15.2
2022-10-06T06:13:30.466Z,15.28
2022-10-06T06:14:30.566Z,15.44
2022-10-06T06:15:30.667Z,15.52
2022-10-06T06:16:30.845Z,15.52
2022-10-06T06:17:30.979Z,15.52
2022-10-06T06:18:31.403Z,15.44
2022-10-06T06:19:31.175Z,15.44
2022-10-06T06:20:31.273Z,15.44
2022-10-06T06:21:31.430Z,15.2
2022-10-06T06:22:31.529Z,15.12
2022-10-06T06:23:31.632Z,15.12
2022-10-06T06:24:31.780Z,14.88
2022-10-06T06:25:31.886Z,15.04
2022-10-06T06:26:32.032Z,15.04
2022-10-06T06:27:32.191Z,14.719999
2022-10-06T06:28:32.953Z,14.719999
2022-10-06T06:29:32.439Z,14.799999
2022-10-06T06:30:32.544Z,14.639999
2022-10-06T06:31:32.740Z,14.48
2022-10-06T06:32:32.848Z,14.32
2022-10-06T06:33:32.994Z,14.08
2022-10-06T06:34:33.146Z,13.679999
2022-10-06T06:35:33.252Z,13.44
2022-10-06T06:36:33.361Z,13.12
2022-10-06T06:37:33.522Z,13.04
2022-10-06T06:38:33.715Z,12.88
2022-10-06T06:39:33.706Z,12.88
2022-10-06T06:40:33.807Z,12.719999
2022-10-06T06:41:33.920Z,12.48
2022-10-06T06:42:34.013Z,12.639999
2022-10-06T06:43:34.129Z,12.4
2022-10-06T06:44:34.224Z,12.32
2022-10-06T06:45:34.318Z,12.24
2022-10-06T06:47:34.620Z,12.08
2022-10-06T06:48:34.777Z,12.08
2022-10-06T06:49:34.927Z,12.08
2022-10-06T06:50:35.076Z,12
2022-10-06T06:51:35.186Z,12.08
2022-10-06T06:52:35.332Z,12.24
2022-10-06T06:53:35.435Z,12.08
2022-10-06T06:54:35.541Z,12
2022-10-06T06:55:35.687Z,12.08
2022-10-06T06:56:35.791Z,12
2022-10-06T06:57:35.943Z,12
2022-10-06T06:58:36.042Z,12
2022-10-06T06:59:36.199Z,11.92
2022-10-06T07:00:36.483Z,12
2022-10-06T07:01:36.651Z,12
2022-10-06T07:02:36.602Z,12.08
2022-10-06T07:03:56.410Z,12.08
2022-10-06T07:04:36.853Z,12.24
2022-10-06T07:05:37.006Z,12.24
2022-10-06T07:06:37.103Z,12.24
2022-10-06T07:07:37.207Z,12.08
2022-10-06T07:08:37.382Z,12.08
2022-10-06T07:09:37.466Z,12.32
2022-10-06T07:10:37.563Z,12.24
2022-10-06T07:11:37.669Z,12.08
2022-10-06T07:12:37.823Z,12.08
2022-10-06T07:13:37.964Z,12.08
2022-10-06T07:14:38.075Z,12.08
2022-10-06T07:15:38.253Z,12.08
2022-10-06T07:16:38.322Z,12.08
2022-10-06T07:17:38.424Z,12.08
2022-10-06T07:18:38.528Z,12.08
2022-10-06T07:19:38.631Z,12.24
2022-10-06T07:20:38.737Z,12.24
2022-10-06T07:21:38.839Z,12.24
2022-10-06T07:22:38.993Z,12.32
2022-10-06T07:23:39.139Z,12.4
2022-10-06T07:24:39.298Z,12.32
2022-10-06T07:25:39.388Z,12.32
2022-10-06T07:26:39.491Z,12.4
2022-10-06T07:27:39.589Z,12.32
2022-10-06T07:28:39.752Z,12.4
2022-10-06T07:29:39.843Z,12.4
2022-10-06T07:30:40.807Z,12.4
2022-10-06T07:31:40.137Z,12.4
2022-10-06T07:32:40.196Z,12.719999
2022-10-06T07:33:40.358Z,12.719999
2022-10-06T07:34:40.502Z,12.719999
2022-10-06T07:35:40.620Z,12.48
2022-10-06T07:36:40.756Z,12.639999
2022-10-06T07:37:40.854Z,12.48
2022-10-06T07:38:40.959Z,12.48
2022-10-06T07:39:41.070Z,12.48
2022-10-06T07:40:46.122Z,12.4
2022-10-06T07:41:41.323Z,12.4
2022-10-06T07:42:41.417Z,12.4
2022-10-06T07:43:41.574Z,12.24
2022-10-06T07:44:41.721Z,12.32
2022-10-06T07:45:42.035Z,12.24
2022-10-06T07:46:41.926Z,12.24
2022-10-06T07:47:42.021Z,12.32
2022-10-06T07:48:42.124Z,12.48
2022-10-06T07:49:42.275Z,12.719999
2022-10-06T07:50:42.383Z,12.48
2022-10-06T07:51:42.533Z,12.48
2022-10-06T07:52:42.631Z,12.639999
2022-10-06T07:53:42.787Z,12.719999
2022-10-06T07:54:42.886Z,12.719999
2022-10-06T07:55:43.036Z,12.799999
2022-10-06T07:56:43.196Z,12.799999
2022-10-06T07:57:43.293Z,12.799999
2022-10-06T07:58:43.406Z,12.639999
2022-10-06T07:59:43.509Z,12.639999
2022-10-06T08:00:43.600Z,12.639999
2022-10-06T08:01:43.746Z,12.799999
2022-10-06T08:02:43.911Z,12.88
2022-10-06T08:03:43.951Z,12.88
2022-10-06T08:04:44.120Z,13.04
2022-10-06T08:05:44.260Z,13.12
2022-10-06T08:06:44.362Z,13.12
2022-10-06T08:07:44.463Z,12.88
2022-10-06T08:08:46.253Z,13.04
2022-10-06T08:09:44.717Z,13.04
2022-10-06T08:10:44.814Z,13.12
2022-10-06T08:11:44.977Z,13.12
2022-10-06T08:13:45.271Z,13.2
2022-10-06T08:14:45.420Z,13.44
2022-10-06T08:15:45.599Z,13.28
2022-10-06T08:16:45.731Z,13.2
2022-10-06T08:17:45.824Z,13.44
2022-10-06T08:18:46.998Z,13.599999
2022-10-06T08:19:46.133Z,13.679999
2022-10-06T08:20:46.277Z,13.52
2022-10-06T08:21:46.387Z,13.12
2022-10-06T08:22:46.534Z,13.04
2022-10-06T08:23:46.641Z,13.2
2022-10-06T08:25:04.594Z,13.2
2022-10-06T08:25:46.845Z,13.44
2022-10-06T08:26:47.005Z,13.52
2022-10-06T08:27:50.072Z,13.599999
2022-10-06T08:28:47.196Z,13.679999
2022-10-06T08:29:47.312Z,13.44
2022-10-06T08:30:47.449Z,13.12
2022-10-06T08:31:47.630Z,13.44
2022-10-06T08:32:47.705Z,13.44
2022-10-06T08:33:47.799Z,13.44
2022-10-06T08:34:47.899Z,13.599999
2022-10-06T08:35:48.006Z,13.679999
2022-10-06T08:37:02.359Z,13.52
2022-10-06T08:37:48.210Z,13.52
2022-10-06T08:38:48.363Z,13.599999
2022-10-06T08:39:48.513Z,13.52
2022-10-06T08:40:48.617Z,13.44
2022-10-06T08:41:48.771Z,13.44
2022-10-06T08:42:48.880Z,13.52
2022-10-06T08:43:49.022Z,13.599999
2022-10-06T08:44:49.146Z,13.44
2022-10-06T08:45:49.461Z,13.44
2022-10-06T08:46:49.388Z,13.599999
2022-10-06T08:47:49.493Z,13.44
2022-10-06T08:48:49.630Z,13.52
2022-10-06T08:49:49.782Z,13.52
2022-10-06T08:50:49.888Z,13.599999
2022-10-06T08:51:50.037Z,13.84
2022-10-06T08:52:50.186Z,13.92
2022-10-06T08:53:50.289Z,13.92
2022-10-06T08:54:50.391Z,13.92
2022-10-06T08:55:50.499Z,13.679999
2022-10-06T08:56:50.591Z,14
2022-10-06T08:57:50.760Z,14
2022-10-06T08:58:50.855Z,14
2022-10-06T08:59:51.012Z,14.08
2022-10-06T09:00:51.150Z,14.08
2022-10-06T09:01:51.418Z,14.08
2022-10-06T09:02:51.412Z,14.639999
2022-10-06T09:03:51.538Z,14.639999
2022-10-06T09:04:51.656Z,14.32
2022-10-06T09:05:51.760Z,14.32
2022-10-06T09:06:51.863Z,14.48
2022-10-06T09:07:51.968Z,14.48
2022-10-06T09:08:52.066Z,14.48
2022-10-06T09:09:52.338Z,14.639999
2022-10-06T09:10:52.322Z,14.719999
2022-10-06T09:11:52.457Z,14.799999
2022-10-06T09:12:52.528Z,14.88
2022-10-06T09:13:52.682Z,14.799999
2022-10-06T09:14:52.788Z,14.799999
2022-10-06T09:15:52.985Z,15.44
2022-10-06T09:16:53.028Z,15.2
2022-10-06T09:17:53.180Z,15.52
2022-10-06T09:19:07.530Z,15.44
2022-10-06T09:19:53.795Z,15.599999
2022-10-06T09:20:53.540Z,15.44
2022-10-06T09:21:53.686Z,15.44
2022-10-06T09:22:53.790Z,15.599999
2022-10-06T09:23:53.905Z,15.44
2022-10-06T09:24:54.047Z,15.28
2022-10-06T09:25:54.203Z,15.28
2022-10-06T09:26:54.365Z,15.44
2022-10-06T09:27:54.497Z,15.52
2022-10-06T09:28:54.662Z,15.839999
2022-10-06T09:29:54.996Z,16
2022-10-06T09:30:55.418Z,16.08
2022-10-06T09:31:55.005Z,16.4
2022-10-06T09:32:55.156Z,16.24
2022-10-06T09:33:55.266Z,16.4
2022-10-06T09:34:55.373Z,16.24
2022-10-06T09:35:55.466Z,16
2022-10-06T09:36:58.908Z,16.4
2022-10-06T09:37:55.713Z,16.08
2022-10-06T09:38:55.816Z,16.08
2022-10-06T09:39:56.210Z,16.24
2022-10-06T09:40:56.025Z,16.32
2022-10-06T09:41:56.120Z,16.32
2022-10-06T09:42:56.249Z,16.24
2022-10-06T09:43:56.374Z,16.24
2022-10-06T09:44:56.539Z,16.48
2022-10-06T09:45:56.733Z,17.2
2022-10-06T09:46:56.777Z,17.2
2022-10-06T09:47:56.885Z,16.88
2022-10-06T09:48:56.984Z,16.64
2022-10-06T09:49:57.545Z,16.24
2022-10-06T09:50:57.239Z,16
2022-10-06T09:51:57.389Z,16.08
2022-10-06T09:52:57.542Z,16.64
2022-10-06T09:53:57.645Z,17.04
2022-10-06T09:54:57.741Z,16.88
2022-10-06T09:55:57.843Z,17.28
2022-10-06T09:56:57.946Z,17.52
2022-10-06T09:57:58.068Z,18.4
2022-10-06T09:58:58.149Z,18.4
2022-10-06T09:59:58.787Z,18
2022-10-06T10:00:58.467Z,17.92
2022-10-06T10:01:58.553Z,17.12
2022-10-06T10:02:58.935Z,17.2
2022-10-06T10:04:19.221Z,17.12
2022-10-06T10:04:59.122Z,16.88
2022-10-06T10:05:59.260Z,16.48
2022-10-06T10:06:59.363Z,16.4
2022-10-06T10:07:59.469Z,16.88
2022-10-06T10:08:59.568Z,17.92
2022-10-06T10:09:59.797Z,18.24
2022-10-06T10:10:59.828Z,18.48
2022-10-06T10:12:00.067Z,19.12
2022-10-06T10:13:00.133Z,20.32
2022-10-06T10:14:00.287Z,20.24
2022-10-06T10:15:00.380Z,19.6
2022-10-06T10:16:00.595Z,20.72
2022-10-06T10:17:00.680Z,21.52
2022-10-06T10:18:00.835Z,22
2022-10-06T10:19:00.933Z,23.04
2022-10-06T10:20:01.214Z,23.2
2022-10-06T10:21:01.141Z,23.44
2022-10-06T10:22:01.288Z,22.8
2022-10-06T10:23:01.397Z,22.64
2022-10-06T10:24:01.547Z,22.4
2022-10-06T10:25:01.655Z,21.52
2022-10-06T10:26:01.818Z,22.24
2022-10-06T10:27:01.957Z,20
2022-10-06T10:28:02.126Z,19.6
2022-10-06T10:29:02.200Z,21.44
2022-10-06T10:30:02.329Z,21.92
2022-10-06T10:31:02.481Z,21.92
2022-10-06T10:32:02.602Z,22.64
2022-10-06T10:33:02.714Z,23.52
2022-10-06T10:34:12.300Z,23.28
2022-10-06T10:35:02.972Z,23.68
2022-10-06T10:36:03.068Z,24
2022-10-06T10:37:03.166Z,22.72
2022-10-06T10:38:03.267Z,23.04
2022-10-06T10:39:03.454Z,23.6
2022-10-06T10:40:03.526Z,25.92
2022-10-06T10:41:03.669Z,25.2
2022-10-06T10:42:03.777Z,25.84
2022-10-06T10:43:03.922Z,26.48
2022-10-06T10:44:04.252Z,25.28
2022-10-06T10:45:04.205Z,25.84
2022-10-06T10:46:04.332Z,25.52
2022-10-06T10:47:04.575Z,25.84
2022-10-06T10:48:04.585Z,25.52
2022-10-06T10:49:04.742Z,24.88
2022-10-06T10:50:04.845Z,26.32
2022-10-06T10:51:04.947Z,26.64
2022-10-06T10:52:05.056Z,24.88
2022-10-06T10:53:05.258Z,25.92
2022-10-06T10:54:05.344Z,26.64
2022-10-06T10:55:05.499Z,25.84
2022-10-06T10:56:05.656Z,24.24
2022-10-06T10:57:05.752Z,24.32
2022-10-06T10:58:05.861Z,23.6
2022-10-06T10:59:06.007Z,23.44
2022-10-06T11:00:06.158Z,21.92
2022-10-06T11:01:06.338Z,22.4
2022-10-06T11:02:06.470Z,22.64
2022-10-06T11:03:06.509Z,21.92
2022-10-06T11:04:06.666Z,21.28
2022-10-06T11:05:06.818Z,20.4
2022-10-06T11:06:06.918Z,19.68
2022-10-06T11:07:07.019Z,18.88
2022-10-06T11:08:07.173Z,18.72
2022-10-06T11:09:07.272Z,18.32
2022-10-06T11:10:07.370Z,18.24
2022-10-06T11:11:07.473Z,18.32
2022-10-06T11:12:07.625Z,18.72
2022-10-06T11:13:07.777Z,18.24
2022-10-06T11:14:07.885Z,19.04
2022-10-06T11:15:08.001Z,20
2022-10-06T11:16:08.178Z,21.12
2022-10-06T11:17:08.284Z,20.64
2022-10-06T11:18:08.432Z,20.64
2022-10-06T11:19:08.535Z,20.72
2022-10-06T11:20:08.639Z,22.08
2022-10-06T11:21:08.802Z,23.12
2022-10-06T11:22:08.890Z,21.84
2022-10-06T11:23:09.043Z,20.88
2022-10-06T11:24:09.150Z,21.6
2022-10-06T11:25:09.286Z,20.88
2022-10-06T11:26:09.403Z,19.52
2022-10-06T11:27:09.552Z,19.28
2022-10-06T11:28:09.679Z,19.12
2022-10-06T11:29:09.817Z,18.48
2022-10-06T11:30:09.932Z,18.24
2022-10-06T11:31:10.087Z,18.8
2022-10-06T11:32:10.164Z,18.72
2022-10-06T11:33:10.258Z,18.24
2022-10-06T11:34:10.365Z,19.76
2022-10-06T11:35:10.467Z,20.64
2022-10-06T11:36:10.574Z,20.8
2022-10-06T11:37:10.717Z,21.04
2022-10-06T11:38:10.820Z,21.28
2022-10-06T11:39:10.920Z,19.6
2022-10-06T11:40:11.129Z,19.44
2022-10-06T11:41:11.180Z,19.04
2022-10-06T11:42:11.348Z,18.48
2022-10-06T11:43:11.429Z,19.2
2022-10-06T11:44:11.528Z,20.64
2022-10-06T11:45:11.692Z,20.64
2022-10-06T11:46:11.858Z,20.88
2022-10-06T11:47:11.936Z,22.72
2022-10-06T11:48:12.092Z,23.04
2022-10-06T11:49:12.237Z,21.28
2022-10-06T11:50:12.394Z,22.32
2022-10-06T11:51:12.493Z,21.68
2022-10-06T11:52:12.597Z,21.12
2022-10-06T11:53:12.703Z,21.68
2022-10-06T11:54:12.802Z,21.12
2022-10-06T11:55:12.959Z,20.88
2022-10-06T11:56:13.100Z,21.68
2022-10-06T11:57:13.213Z,21.68
2022-10-06T11:58:30.164Z,21.04
2022-10-06T11:59:13.532Z,20
2022-10-06T12:00:13.835Z,18.64
2022-10-06T12:01:13.911Z,19.04
2022-10-06T12:02:14.446Z,19.12
2022-10-06T12:03:14.231Z,18.8
2022-10-06T12:04:14.318Z,19.2
2022-10-06T12:05:49.588Z,19.28
2022-10-06T12:06:14.757Z,18.4
2022-10-06T12:07:14.920Z,18.48
2022-10-06T12:08:15.071Z,20
2022-10-06T12:09:15.176Z,21.44
2022-10-06T12:10:15.324Z,21.44
2022-10-06T12:11:15.475Z,22
2022-10-06T12:12:15.579Z,19.76
2022-10-06T12:13:39.361Z,19.28
2022-10-06T12:15:31.703Z,19.12
2022-10-06T12:17:19.398Z,19.04
2022-10-06T12:18:16.393Z,19.68
2022-10-06T12:19:16.508Z,20.48
2022-10-06T12:20:16.599Z,20.08
2022-10-06T12:21:16.698Z,21.04
2022-10-06T12:22:16.900Z,21.84
2022-10-06T12:23:16.946Z,22.32
2022-10-06T12:24:17.098Z,22.72
2022-10-06T12:25:17.200Z,22.4
2022-10-06T12:26:17.299Z,22.08
2022-10-06T12:27:18.844Z,22.64
2022-10-06T12:28:17.570Z,22.08
2022-10-06T12:29:17.743Z,22.88
2022-10-06T12:30:17.815Z,23.84
2022-10-06T12:31:18.195Z,22.4
2022-10-06T12:32:18.066Z,22
2022-10-06T12:33:18.213Z,22.32
2022-10-06T12:34:18.321Z,22.64
2022-10-06T12:35:18.475Z,21.12
2022-10-06T12:36:18.571Z,21.2
2022-10-06T12:37:18.670Z,22
2022-10-06T12:38:18.823Z,21.44
2022-10-06T12:39:18.979Z,21.2
2022-10-06T12:40:19.085Z,21.44
2022-10-06T12:41:19.231Z,22.88
2022-10-06T12:42:19.388Z,22.8
2022-10-06T12:43:19.483Z,22.24
2022-10-06T12:44:19.589Z,21.6
2022-10-06T12:45:19.745Z,22
2022-10-06T12:46:19.962Z,21.12
2022-10-06T12:47:20.040Z,20.88
2022-10-06T12:48:20.142Z,21.04
2022-10-06T12:49:20.250Z,20.08
2022-10-06T12:50:20.347Z,19.6